Time;durP1;ratioP1;P1;durP2;ratioP2;P2;SDS_P1;SDS_P2;PMS_P1;PMS_P2;Temp;Humidity;BMP_temperature;BMP_pressure;BME280_temperature;BME280_humidity;BME280_pressure;Samples;Min_cycle;Max_cycle;Signal;HPM_P1;HPM_P2
2021/06/29 00:00:39;;;;;;;;;;;15.00;99.90;;;14.86;93.78;101161.78;5074837;28;19955;-64
2021/06/29 00:03:08;;;;;;;;;;;15.00;99.90;;;14.82;93.39;101160.78;5073776;28;20355;-64
2021/06/29 00:05:37;;;;;;;;;;;15.00;99.90;;;14.85;92.52;101160.16;5074664;28;19986;-64
2021/06/29 00:08:07;;;;;;;;;;;14.90;99.90;;;14.88;91.60;101149.47;5074332;28;19932;-64
2021/06/29 00:10:36;;;;;;;;;;;15.00;99.90;;;14.91;90.89;101154.28;5074686;28;19971;-64
2021/06/29 00:13:05;;;;;;;;;;;15.00;99.90;;;14.91;90.40;101153.47;5073702;28;19924;-65
2021/06/29 00:15:33;;;;;;;;;;;15.00;99.90;;;14.94;89.78;101153.66;5074475;28;19924;-64
2021/06/29 00:18:00;;;;;;;;;;;15.00;99.90;;;14.93;89.07;101146.59;5074328;28;20240;-64
2021/06/29 00:20:28;;;;;;;;;;;15.10;99.90;;;14.93;88.80;101143.88;5074174;28;19940;-64
2021/06/29 00:22:56;;;;;;;;;;;15.00;99.90;;;14.96;88.23;101145.97;5073497;28;19925;-64
2021/06/29 00:25:25;;;;;;;;;;;15.10;99.90;;;14.96;88.15;101137.81;5074326;28;19931;-64
2021/06/29 00:27:53;;;;;;;;;;;15.10;99.90;;;14.98;87.69;101140.25;5073916;28;19924;-64
2021/06/29 00:30:22;;;;;;;;;;;15.10;99.90;;;15.00;87.09;101133.38;5074046;28;19924;-64
2021/06/29 00:32:49;;;;;;;;;;;15.10;99.90;;;15.00;86.93;101130.63;5073214;28;20404;-64
2021/06/29 00:35:17;;;;;;;;;;;15.10;99.90;;;14.99;86.65;101126.31;5074215;28;20336;-64
2021/06/29 00:37:45;;;;;;;;;;;15.10;99.90;;;15.00;86.37;101127.91;5073972;28;19924;-64
2021/06/29 00:40:14;;;;;;;;;;;15.10;99.90;;;14.99;86.48;101128.22;5073786;28;19932;-64
2021/06/29 00:42:44;;;;;;;;;;;15.10;99.90;;;14.99;86.30;101126.31;5073127;28;19924;-64
2021/06/29 00:45:13;;;;;;;;;;;15.10;99.90;;;15.01;86.37;101128.72;5073634;28;19937;-64
2021/06/29 00:47:41;;;;;;;;;;;15.10;99.90;;;15.02;86.13;101127.59;5073581;28;19924;-65
2021/06/29 00:50:10;;;;;;;;;;;15.10;99.90;;;15.00;86.17;101127.91;5073418;28;19928;-64
2021/06/29 00:52:40;;;;;;;;;;;15.10;99.90;;;14.99;86.10;101129.03;5072903;28;19924;-64
2021/06/29 00:55:09;;;;;;;;;;;15.10;99.90;;;14.97;85.90;101135.91;5073647;28;20027;-64
2021/06/29 00:57:37;;;;;;;;;;;15.10;99.90;;;14.94;86.26;101126.44;5073070;28;20365;-65
2021/06/29 01:00:08;;;;;;;;;;;15.10;99.90;;;14.93;86.25;101127.53;5072845;28;19928;-64
2021/06/29 01:02:35;;;;;;;;;;;15.10;99.90;;;14.92;86.05;101120.50;5072706;28;19935;-65
2021/06/29 01:05:06;;;;;;;;;;;15.00;99.90;;;14.89;86.45;101131.22;5073520;28;19931;-64
2021/06/29 01:07:34;;;;;;;;;;;15.00;99.90;;;14.85;86.61;101122.84;5073408;28;19929;-64
2021/06/29 01:10:05;;;;;;;;;;;15.00;99.90;;;14.80;87.33;101128.44;5072954;28;19947;-64
2021/06/29 01:12:33;;;;;;;;;;;14.90;99.90;;;14.78;87.82;101122.47;5072609;28;20031;-64
2021/06/29 01:15:04;;;;;;;;;;;14.90;99.90;;;14.74;87.85;101124.25;5054870;28;19932;-65
2021/06/29 01:17:34;;;;;;;;;;;14.90;99.90;;;14.75;88.21;101123.91;5053341;28;19929;-64
2021/06/29 01:20:08;;;;;;;;;;;14.90;99.90;;;14.78;88.37;101127.94;5052910;28;19925;-64
2021/06/29 01:22:35;;;;;;;;;;;14.90;99.90;;;14.77;88.26;101120.91;5052372;28;19931;-65
2021/06/29 01:25:04;;;;;;;;;;;14.90;99.90;;;14.75;88.29;101123.09;5053097;28;19936;-64
2021/06/29 01:27:45;;;;;;;;;;;14.90;99.90;;;14.73;88.16;101115.25;5053210;28;19925;-65
2021/06/29 01:32:59;;;;;;;;;;;14.80;99.90;;;14.65;88.71;101113.25;5052307;28;19931;-64
2021/06/29 01:35:28;;;;;;;;;;;14.80;99.90;;;14.64;88.57;101105.44;5052894;28;19931;-64
2021/06/29 01:37:56;;;;;;;;;;;14.80;99.90;;;14.62;88.44;101107.66;5052800;28;19924;-64
2021/06/29 01:40:27;;;;;;;;;;;14.80;99.90;;;14.60;88.63;101107.16;5052543;28;20386;-64
2021/06/29 01:42:57;;;;;;;;;;;14.70;99.90;;;14.55;89.13;101107.28;5052086;28;20330;-64
2021/06/29 01:45:27;;;;;;;;;;;14.70;99.90;;;14.54;89.20;101094.78;5053157;28;20015;-65
2021/06/29 01:47:58;;;;;;;;;;;15.30;99.90;;;14.53;89.02;101098.63;5052494;28;19925;-64
2021/06/29 01:50:27;;;;;;;;;;;14.70;99.90;;;14.51;89.02;101095.41;5052416;28;19929;-64
2021/06/29 01:52:56;;;;;;;;;;;14.70;99.90;;;14.49;88.98;101084.03;5049810;28;19933;-64
2021/06/29 01:55:24;;;;;;;;;;;14.70;99.90;;;14.46;89.36;101088.19;5052918;28;19924;-64
2021/06/29 01:57:52;;;;;;;;;;;14.60;99.90;;;14.45;89.12;101088.47;5052650;28;20076;-64
2021/06/29 02:00:21;;;;;;;;;;;;;;;14.42;89.41;101086.38;5052301;28;19925;-64
2021/06/29 02:02:49;;;;;;;;;;;;;;;14.39;89.30;101084.25;5051452;28;19925;-64
2021/06/29 02:05:17;;;;;;;;;;;14.40;99.90;;;14.37;89.22;101083.78;5052696;28;19924;-64
2021/06/29 02:07:46;;;;;;;;;;;;;;;14.34;89.62;101077.03;5052521;28;19967;-64
2021/06/29 02:10:15;;;;;;;;;;;14.50;99.90;;;14.33;89.89;101080.06;5052079;28;19931;-64
2021/06/29 02:12:44;;;;;;;;;;;14.50;99.90;;;14.28;89.85;101069.28;5051741;28;19929;-64
2021/06/29 02:15:13;;;;;;;;;;;14.50;99.90;;;14.27;90.24;101079.34;5052459;28;20317;-64
2021/06/29 02:17:41;;;;;;;;;;;14.40;99.90;;;14.25;89.79;101067.97;5052374;28;19932;-64
2021/06/29 02:20:11;;;;;;;;;;;14.40;99.90;;;14.21;89.96;101069.69;5052349;28;19925;-64
2021/06/29 02:22:38;;;;;;;;;;;14.40;99.90;;;14.18;89.99;101070.31;5051581;28;20267;-65
2021/06/29 02:25:09;;;;;;;;;;;14.30;99.90;;;14.16;90.55;101067.09;5052267;28;19925;-65
2021/06/29 02:27:37;;;;;;;;;;;14.30;99.90;;;14.17;90.28;101065.97;5052360;28;20352;-64
2021/06/29 02:30:06;;;;;;;;;;;14.30;99.90;;;14.16;90.38;101067.88;5052108;28;19928;-64
2021/06/29 02:32:34;;;;;;;;;;;14.30;99.90;;;14.15;90.40;101066.28;5051544;28;20310;-64
2021/06/29 02:35:02;;;;;;;;;;;14.30;99.90;;;14.17;90.07;101060.53;5052346;28;20302;-64
2021/06/29 02:37:30;;;;;;;;;;;14.30;99.90;;;14.17;89.66;101063.25;5052342;28;19929;-64
2021/06/29 02:39:57;;;;;;;;;;;14.30;99.90;;;14.17;89.41;101061.34;5051848;28;19978;-64
2021/06/29 02:42:27;;;;;;;;;;;14.30;99.90;;;14.17;89.58;101057.81;5051667;28;19929;-64
2021/06/29 02:45:00;;;;;;;;;;;14.30;99.90;;;14.16;89.07;101057.00;5051901;28;19925;-64
2021/06/29 02:47:28;;;;;;;;;;;14.30;99.90;;;14.14;89.34;101061.16;5056509;28;19929;-64
2021/06/29 02:49:56;;;;;;;;;;;14.20;99.90;;;14.12;89.36;101058.75;5071719;28;19925;-64
2021/06/29 02:52:24;;;;;;;;;;;14.20;99.90;;;14.10;89.49;101060.94;5071492;28;19925;-64
2021/06/29 02:54:51;;;;;;;;;;;14.30;99.90;;;14.09;89.39;101059.38;5071869;28;19931;-64
2021/06/29 02:57:19;;;;;;;;;;;14.20;99.90;;;14.08;89.41;101049.59;5072115;28;19939;-64
2021/06/29 02:59:48;;;;;;;;;;;14.20;99.90;;;14.07;89.62;101047.19;5071770;28;20407;-64
2021/06/29 03:02:16;;;;;;;;;;;14.20;99.90;;;14.04;89.70;101054.03;5071416;28;19924;-64
2021/06/29 03:04:44;;;;;;;;;;;14.20;99.90;;;14.04;89.58;101045.09;5071838;28;19925;-64
2021/06/29 03:07:12;;;;;;;;;;;14.20;99.90;;;14.05;89.88;101050.19;5071997;28;19924;-64
2021/06/29 03:09:40;;;;;;;;;;;14.20;99.90;;;14.06;89.54;101051.00;5071434;28;20487;-64
2021/06/29 03:12:09;;;;;;;;;;;14.20;99.90;;;14.08;89.41;101049.59;5071478;28;19936;-65
2021/06/29 03:14:39;;;;;;;;;;;14.20;99.90;;;14.08;89.87;101044.16;5071643;28;19929;-64
2021/06/29 03:17:09;;;;;;;;;;;14.20;99.90;;;14.11;89.68;101048.97;5071991;28;19924;-64
2021/06/29 03:19:37;;;;;;;;;;;14.30;99.90;;;14.12;89.63;101050.59;5071391;28;20289;-64
2021/06/29 03:22:06;;;;;;;;;;;14.30;99.90;;;14.15;89.36;101055.41;5073196;28;19933;-64
2021/06/29 03:24:34;;;;;;;;;;;14.30;99.90;;;14.17;89.38;101044.22;5075291;28;19967;-64
2021/06/29 03:27:02;;;;;;;;;;;14.30;99.90;;;14.17;89.42;101045.03;5075492;28;19931;-65
2021/06/29 03:29:30;;;;;;;;;;;14.30;99.90;;;14.17;88.99;101042.31;5075001;28;20331;-64
2021/06/29 03:31:57;;;;;;;;;;;14.30;99.90;;;14.14;89.44;101051.06;5074917;28;19928;-64
2021/06/29 03:34:27;;;;;;;;;;;14.30;99.90;;;14.16;89.28;101045.34;5074728;28;19928;-64
2021/06/29 03:36:54;;;;;;;;;;;14.30;99.90;;;14.12;89.25;101047.06;5075424;28;19924;-64
2021/06/29 03:39:22;;;;;;;;;;;14.20;99.90;;;14.11;90.05;101045.44;5074771;28;19925;-64
2021/06/29 03:41:50;;;;;;;;;;;14.30;99.90;;;14.12;89.83;101050.59;5074684;28;20294;-64
2021/06/29 03:44:18;;;;;;;;;;;14.30;99.90;;;14.10;90.06;101044.63;5074673;28;20487;-65
2021/06/29 03:46:46;;;;;;;;;;;14.20;99.90;;;14.06;90.24;101042.84;5074810;28;20357;-64
2021/06/29 03:49:14;;;;;;;;;;;14.20;99.90;;;14.05;90.59;101046.66;5074384;28;19924;-65
2021/06/29 03:51:43;;;;;;;;;;;14.20;99.90;;;14.02;91.00;101037.22;5074893;28;19928;-64
2021/06/29 03:54:11;;;;;;;;;;;14.20;99.90;;;14.00;91.43;101044.88;5074603;28;19928;-65
2021/06/29 03:56:39;;;;;;;;;;;14.20;99.90;;;14.02;91.33;101031.78;5074766;28;19936;-64
2021/06/29 03:59:09;;;;;;;;;;;;;;;13.98;91.46;101033.50;5074210;28;19932;-65
2021/06/29 04:01:37;;;;;;;;;;;14.20;99.90;;;13.97;91.38;101031.91;5074839;28;19928;-64
2021/06/29 04:04:05;;;;;;;;;;;14.10;99.90;;;13.93;91.31;101020.03;5074213;28;19925;-64
2021/06/29 04:06:34;;;;;;;;;;;14.10;99.90;;;13.91;91.81;101024.97;5074702;28;19967;-64
2021/06/29 04:09:05;;;;;;;;;;;14.10;99.90;;;13.88;92.11;101032.94;5074035;28;20370;-64
2021/06/29 04:11:32;;;;;;;;;;;14.00;99.90;;;13.88;92.39;101027.50;5074508;28;19948;-64
2021/06/29 04:14:00;;;;;;;;;;;14.10;99.90;;;13.87;92.22;101026.69;5073695;28;19932;-64
2021/06/29 04:16:28;;;;;;;;;;;14.00;99.90;;;13.87;91.99;101028.59;5074537;28;20432;-64
2021/06/29 04:18:56;;;;;;;;;;;14.00;99.90;;;13.86;92.19;101030.50;5074051;28;19928;-64
2021/06/29 04:21:23;;;;;;;;;;;14.00;99.90;;;13.85;92.20;101026.22;5074373;28;19928;-64
2021/06/29 04:23:52;;;;;;;;;;;13.90;99.90;;;13.81;92.03;101033.34;5073847;28;20305;-64
2021/06/29 04:26:21;;;;;;;;;;;13.90;99.90;;;13.77;92.11;101037.00;5074184;28;19978;-64
2021/06/29 04:28:49;;;;;;;;;;;13.90;99.90;;;13.76;92.03;101040.81;5073720;28;19967;-64
2021/06/29 04:31:18;;;;;;;;;;;13.90;99.90;;;13.75;92.42;101040.00;5074339;28;20289;-64
2021/06/29 04:33:46;;;;;;;;;;;13.80;99.90;;;13.74;92.31;101037.63;5071738;28;19929;-64
2021/06/29 04:36:14;;;;;;;;;;;13.80;99.90;;;13.74;92.31;101046.53;5054066;28;19924;-64
2021/06/29 04:38:42;;;;;;;;;;;13.80;99.90;;;13.70;92.31;101040.13;5053561;28;19932;-64
2021/06/29 04:41:10;;;;;;;;;;;13.80;99.90;;;13.69;92.49;101044.75;5054146;28;19929;-64
2021/06/29 04:43:43;;;;;;;;;;;;;;;13.67;92.54;101041.56;5053053;28;19933;-65
2021/06/29 04:46:11;;;;;;;;;;;13.80;99.90;;;13.68;92.40;101048.56;5053812;28;19936;-64
2021/06/29 04:48:39;;;;;;;;;;;13.80;99.90;;;13.62;92.17;101052.50;5053415;28;19952;-64
2021/06/29 04:51:08;;;;;;;;;;;13.70;99.90;;;13.33;91.37;101041.19;5053689;28;19925;-64
2021/06/29 04:53:36;;;;;;;;;;;;;;;13.02;91.33;101049.06;5052848;28;19931;-64
2021/06/29 04:56:16;;;;;;;;;;;13.40;99.90;;;12.92;92.53;101049.25;5053659;28;19931;-64
2021/06/29 04:58:46;;;;;;;;;;;13.20;99.90;;;12.97;93.93;101051.91;5053176;28;19979;-64
2021/06/29 05:01:14;;;;;;;;;;;13.20;99.90;;;13.09;94.11;101054.97;5053717;28;19932;-64
2021/06/29 05:03:42;;;;;;;;;;;13.30;99.90;;;13.08;93.58;101047.91;5052630;28;19929;-64
2021/06/29 05:06:09;;;;;;;;;;;13.30;99.90;;;13.04;93.44;101052.28;5053412;28;20258;-64
2021/06/29 05:08:37;;;;;;;;;;;13.30;99.90;;;13.02;93.76;101053.69;5053059;28;19951;-64
2021/06/29 05:11:05;;;;;;;;;;;13.30;99.90;;;13.01;93.95;101052.88;5053304;28;19925;-64
2021/06/29 05:13:33;;;;;;;;;;;13.30;99.90;;;13.04;93.83;101056.94;5052604;28;19932;-64
2021/06/29 05:16:02;;;;;;;;;;;13.30;99.90;;;12.98;93.52;101058.91;5053163;28;19979;-64
2021/06/29 05:18:30;;;;;;;;;;;13.20;99.90;;;12.92;93.21;101057.41;5053112;28;19952;-64
2021/06/29 05:20:57;;;;;;;;;;;13.20;99.90;;;13.03;94.13;101060.75;5053242;28;19925;-64
2021/06/29 05:23:25;;;;;;;;;;;13.20;99.90;;;13.15;94.30;101061.09;5052561;28;19920;-64
2021/06/29 05:25:53;;;;;;;;;;;13.30;99.90;;;13.05;93.09;101058.53;5053187;28;20313;-64
2021/06/29 05:28:22;;;;;;;;;;;13.30;99.90;;;12.92;93.67;101057.41;5063956;28;19924;-64
2021/06/29 05:30:51;;;;;;;;;;;13.20;99.90;;;12.88;93.94;101064.56;5072719;28;20370;-64
2021/06/29 05:33:21;;;;;;;;;;;13.20;99.90;;;12.87;92.51;101062.94;5072229;28;19933;-65
2021/06/29 05:35:49;;;;;;;;;;;13.10;99.90;;;12.91;92.28;101053.09;5072931;28;19924;-64
2021/06/29 05:38:17;;;;;;;;;;;13.10;99.90;;;13.10;92.10;101055.75;5072609;28;19925;-64
2021/06/29 05:40:44;;;;;;;;;;;13.20;99.90;;;13.69;91.34;101054.81;5072718;28;20301;-64
2021/06/29 05:43:12;;;;;;;;;;;13.80;99.90;;;14.05;89.57;101057.53;5072072;28;19924;-64
2021/06/29 05:45:40;;;;;;;;;;;14.20;99.90;;;14.52;87.36;101046.13;5072280;28;19943;-64
2021/06/29 05:48:10;;;;;;;;;;;14.60;99.90;;;15.08;84.25;101056.34;5072493;28;19924;-64
2021/06/29 05:50:40;;;;;;;;;;;15.00;99.90;;;15.49;81.76;101045.16;5072588;28;19981;-64
2021/06/29 05:53:08;;;;;;;;;;;15.50;99.90;;;15.56;79.96;101044.69;5072171;28;19935;-64
2021/06/29 05:55:35;;;;;;;;;;;15.60;99.90;;;15.73;79.56;101050.16;5072676;28;19948;-64
2021/06/29 05:58:04;;;;;;;;;;;15.70;99.90;;;15.77;78.52;101048.41;5072293;28;19924;-64
2021/06/29 06:00:31;;;;;;;;;;;15.80;99.90;;;16.04;76.77;101050.84;5072324;28;20385;-65
2021/06/29 06:02:59;;;;;;;;;;;15.90;99.90;;;17.46;70.90;101044.88;5072167;28;19986;-64
2021/06/29 06:05:27;;;;;;;;;;;16.80;99.90;;;19.24;63.76;101033.00;5072665;28;19924;-64
2021/06/29 06:07:56;;;;;;;;;;;18.30;99.90;;;20.79;57.89;101037.63;5072311;28;19924;-64
2021/06/29 06:10:24;;;;;;;;;;;20.00;99.90;;;22.15;54.09;101034.97;5072057;28;19951;-65
2021/06/29 06:12:52;;;;;;;;;;;21.40;99.90;;;23.23;50.18;101026.31;5071945;28;19924;-65
2021/06/29 06:15:20;;;;;;;;;;;22.60;99.90;;;24.17;47.49;101022.56;5072502;28;19925;-65
2021/06/29 06:17:47;;;;;;;;;;;23.70;99.90;;;24.85;45.01;101020.19;5072391;28;19924;-65
2021/06/29 06:20:18;;;;;;;;;;;24.60;99.90;;;25.58;43.39;101028.66;5071536;28;19924;-65
2021/06/29 06:22:45;;;;;;;;;;;25.40;99.90;;;26.24;42.34;101025.47;5071965;28;19950;-65
2021/06/29 06:25:15;;;;;;;;;;;26.30;99.90;;;26.87;40.02;101026.81;5072392;28;20343;-65
2021/06/29 06:27:42;;;;;;;;;;;27.00;99.90;;;27.34;38.37;101020.06;5072224;28;19928;-65
2021/06/29 06:30:11;;;;;;;;;;;27.60;99.90;;;27.66;38.45;101023.63;5071942;28;19925;-65
2021/06/29 06:32:39;;;;;;;;;;;28.00;99.90;;;27.97;36.98;101021.91;5071760;28;19990;-64
2021/06/29 06:35:08;;;;;;;;;;;28.40;99.90;;;28.24;36.40;101030.59;5072412;28;19931;-64
2021/06/29 06:37:36;;;;;;;;;;;28.70;99.90;;;28.50;35.78;101027.25;5072215;28;19928;-65
2021/06/29 06:40:05;;;;;;;;;;;29.20;99.90;;;28.56;35.71;101033.97;5071982;28;19924;-65
2021/06/29 06:42:35;;;;;;;;;;;29.40;99.90;;;28.50;35.77;101032.81;5071518;28;19928;-65
2021/06/29 06:45:03;;;;;;;;;;;29.40;99.90;;;28.42;36.14;101028.50;5072170;28;19928;-65
2021/06/29 06:47:31;;;;;;;;;;;29.50;99.90;;;28.49;35.95;101034.00;5072122;28;19999;-65
2021/06/29 06:49:59;;;;;;;;;;;29.60;99.90;;;28.31;37.08;101030.53;5071665;28;19928;-65
2021/06/29 06:52:27;;;;;;;;;;;29.60;99.90;;;28.07;36.65;101035.81;5071364;28;19924;-65
2021/06/29 06:54:55;;;;;;;;;;;29.60;99.90;;;27.65;37.80;101041.47;5072196;28;19924;-65
2021/06/29 06:57:22;;;;;;;;;;;29.60;99.90;;;27.15;38.81;101038.72;5074725;28;19975;-65
2021/06/29 06:59:52;;;;;;;;;;;29.50;99.90;;;26.81;39.91;101050.59;5075269;28;19932;-64
2021/06/29 07:02:19;;;;;;;;;;;29.30;99.90;;;26.57;40.89;101049.31;5075252;28;19932;-64
2021/06/29 07:04:47;;;;;;;;;;;29.30;99.90;;;26.30;40.76;101048.84;5075627;28;20396;-65
2021/06/29 07:07:15;;;;;;;;;;;29.30;99.90;;;25.62;42.28;101043.34;5075830;28;19925;-64
2021/06/29 07:09:43;;;;;;;;;;;29.10;99.90;;;24.85;44.04;101047.84;5074976;28;20400;-65
2021/06/29 07:12:11;;;;;;;;;;;28.60;99.90;;;24.01;46.07;101049.59;5075038;28;19933;-65
2021/06/29 07:14:39;;;;;;;;;;;27.70;99.90;;;23.29;48.45;101053.22;5075037;28;19924;-64
2021/06/29 07:17:08;;;;;;;;;;;26.30;99.90;;;22.95;49.88;101050.69;5075675;28;19932;-64
2021/06/29 07:19:36;;;;;;;;;;;25.20;99.90;;;22.79;50.18;101057.13;5074887;28;19932;-64
2021/06/29 07:22:04;;;;;;;;;;;24.40;99.90;;;22.56;49.87;101052.69;5074857;28;19947;-64
2021/06/29 07:24:32;;;;;;;;;;;23.70;99.90;;;22.16;51.02;101051.09;5075368;28;19929;-64
2021/06/29 07:27:00;;;;;;;;;;;23.10;99.90;;;21.78;51.81;101060.09;5075519;28;19928;-64
2021/06/29 07:29:28;;;;;;;;;;;22.60;99.90;;;21.51;53.70;101050.03;5074555;28;19932;-64
2021/06/29 07:31:56;;;;;;;;;;;22.20;99.90;;;21.49;53.31;101054.31;5075034;28;19929;-64
2021/06/29 07:34:25;;;;;;;;;;;22.00;99.90;;;21.49;53.67;101052.34;5075127;28;19952;-64
2021/06/29 07:36:54;;;;;;;;;;;22.00;99.90;;;21.48;54.22;101045.25;5075276;28;20301;-64
2021/06/29 07:39:22;;;;;;;;;;;22.00;99.90;;;21.27;53.51;101049.44;5074401;28;19978;-64
2021/06/29 07:41:50;;;;;;;;;;;21.80;99.90;;;20.96;53.50;101055.72;5075012;28;20381;-64
2021/06/29 07:44:18;;;;;;;;;;;21.60;99.90;;;20.69;54.09;101049.13;5074642;28;19928;-64
2021/06/29 07:46:46;;;;;;;;;;;21.30;99.90;;;20.59;55.67;101057.88;5075082;28;19928;-64
2021/06/29 07:49:14;;;;;;;;;;;21.10;99.90;;;20.49;55.56;101056.41;5074392;28;19930;-64
2021/06/29 07:51:43;;;;;;;;;;;21.00;99.90;;;20.46;55.62;101059.88;5074775;28;20357;-64
2021/06/29 07:54:11;;;;;;;;;;;20.90;99.90;;;20.48;56.00;101059.53;5074387;28;19928;-65
2021/06/29 07:56:39;;;;;;;;;;;20.90;99.90;;;20.48;55.48;101048.53;5074773;28;19942;-64
2021/06/29 07:59:07;;;;;;;;;;;20.90;99.90;;;20.50;55.12;101057.22;5074028;28;20401;-65
2021/06/29 08:01:34;;;;;;;;;;;21.00;99.90;;;20.76;54.80;101048.50;5074816;28;19925;-64
2021/06/29 08:04:02;;;;;;;;;;;21.10;99.90;;;21.11;53.88;101049.44;5074146;28;20294;-64
2021/06/29 08:06:30;;;;;;;;;;;21.40;99.90;;;21.14;53.43;101037.75;5074386;28;19924;-65
2021/06/29 08:08:59;;;;;;;;;;;21.60;99.90;;;21.27;53.46;101046.69;5073663;28;19924;-64
2021/06/29 08:11:27;;;;;;;;;;;21.60;99.90;;;21.50;52.55;101040.19;5074402;28;19925;-64
2021/06/29 08:13:54;;;;;;;;;;;21.80;99.90;;;21.54;51.91;101038.31;5073787;28;19932;-64
2021/06/29 08:16:22;;;;;;;;;;;21.90;99.90;;;21.58;51.57;101035.66;5074571;28;19924;-65
2021/06/29 08:18:50;;;;;;;;;;;22.00;99.90;;;21.54;50.72;101032.81;5074009;28;19924;-64
2021/06/29 08:21:18;;;;;;;;;;;22.00;99.90;;;21.68;50.80;101040.59;5074220;28;19943;-65
2021/06/29 08:23:46;;;;;;;;;;;22.00;99.90;;;21.86;49.70;101040.97;5073414;28;19924;-64
2021/06/29 08:26:15;;;;;;;;;;;22.20;99.90;;;22.12;48.89;101039.25;5074584;28;19924;-65
2021/06/29 08:28:43;;;;;;;;;;;22.40;99.90;;;22.28;48.52;101041.91;5073923;28;19933;-64
2021/06/29 08:31:11;;;;;;;;;;;22.60;99.90;;;22.26;48.49;101038.72;5073954;28;19947;-65
2021/06/29 08:33:38;;;;;;;;;;;22.60;99.90;;;22.39;48.06;101042.13;5073315;28;19929;-64
2021/06/29 08:36:07;;;;;;;;;;;22.70;99.90;;;22.64;48.61;101035.13;5074178;28;19928;-64
2021/06/29 08:38:34;;;;;;;;;;;22.90;99.90;;;22.93;47.77;101037.25;5073582;28;20289;-64
2021/06/29 08:41:03;;;;;;;;;;;23.20;99.90;;;23.08;47.32;101030.81;5073866;28;20388;-64
2021/06/29 08:43:32;;;;;;;;;;;23.40;99.90;;;23.13;46.06;101024.19;5073061;28;19936;-64
2021/06/29 08:46:01;;;;;;;;;;;23.50;99.90;;;23.00;46.73;101034.63;5073948;28;20297;-64
2021/06/29 08:48:29;;;;;;;;;;;23.40;99.90;;;23.01;45.82;101036.19;5073569;28;19925;-64
2021/06/29 08:50:57;;;;;;;;;;;23.40;99.90;;;23.18;49.78;101026.63;5073561;28;19931;-64
2021/06/29 08:53:25;;;;;;;;;;;23.60;99.90;;;23.34;45.13;101017.06;5072853;28;19924;-64
2021/06/29 08:55:53;;;;;;;;;;;23.60;99.90;;;23.36;44.71;101014.72;5073861;28;19936;-64
2021/06/29 08:58:23;;;;;;;;;;;23.70;99.90;;;23.30;49.74;101010.69;5072844;28;19926;-64
2021/06/29 09:00:53;;;;;;;;;;;23.80;99.90;;;23.08;49.82;101017.03;5073305;28;20378;-64
2021/06/29 09:03:22;;;;;;;;;;;23.60;99.90;;;22.84;50.52;101014.63;5072648;28;19924;-64
2021/06/29 09:05:51;;;;;;;;;;;23.40;99.90;;;22.77;51.29;101004.28;5073575;28;20008;-64
2021/06/29 09:08:20;;;;;;;;;;;23.30;99.90;;;22.72;49.96;101007.34;5073207;28;19928;-64
2021/06/29 09:11:11;;;;;;;;;;;23.30;99.90;;;22.57;50.95;101011.00;5072886;28;19931;-64
2021/06/29 09:13:40;;;;;;;;;;;23.10;99.90;;;22.60;51.20;101007.50;5072492;28;19947;-64
2021/06/29 09:16:09;;;;;;;;;;;23.20;99.90;;;22.66;50.62;101005.25;5073321;28;20335;-64
2021/06/29 09:18:41;;;;;;;;;;;23.20;99.90;;;22.57;51.33;101002.72;5072505;28;19924;-64
2021/06/29 09:21:11;;;;;;;;;;;23.10;99.90;;;22.62;51.89;101007.91;5072859;28;19967;-64
2021/06/29 09:23:42;;;;;;;;;;;23.10;99.90;;;22.74;51.23;100996.75;5072235;28;20446;-64
2021/06/29 09:26:12;;;;;;;;;;;23.20;99.90;;;22.63;50.86;100994.94;5073347;28;19924;-64
2021/06/29 09:28:41;;;;;;;;;;;23.10;99.90;;;22.50;51.75;100988.78;5072662;28;19925;-64
2021/06/29 09:31:12;;;;;;;;;;;23.00;99.90;;;22.42;51.33;100981.56;5072582;28;19924;-64
2021/06/29 09:33:41;;;;;;;;;;;22.90;99.90;;;22.30;52.56;100999.06;5072408;28;19932;-64
2021/06/29 09:36:12;;;;;;;;;;;22.80;99.90;;;22.24;52.02;100994.22;5072964;28;19925;-64
2021/06/29 09:38:41;;;;;;;;;;;22.70;99.90;;;22.22;51.77;100993.78;5072585;28;19970;-64
2021/06/29 09:41:14;;;;;;;;;;;22.70;99.90;;;22.09;52.97;100995.91;5072564;28;19928;-64
2021/06/29 09:43:43;;;;;;;;;;;22.60;99.90;;;22.21;52.75;100997.69;5072115;28;20370;-64
2021/06/29 09:46:13;;;;;;;;;;;22.70;99.90;;;22.12;52.52;100992.41;5072797;28;19928;-64
2021/06/29 09:48:44;;;;;;;;;;;22.60;99.90;;;22.01;53.15;100987.84;5072456;28;19924;-64
2021/06/29 09:51:17;;;;;;;;;;;22.50;99.90;;;22.02;52.96;100994.94;5072377;28;19928;-64
2021/06/29 09:53:47;;;;;;;;;;;22.50;99.90;;;22.21;52.80;100987.47;5071976;28;19950;-64
2021/06/29 09:56:16;;;;;;;;;;;22.70;99.90;;;22.16;52.47;100995.25;5072804;28;19975;-64
2021/06/29 09:58:46;;;;;;;;;;;22.60;99.90;;;21.99;53.10;100990.16;5072328;28;19924;-64
2021/06/29 10:01:20;;;;;;;;;;;22.50;99.90;;;21.91;52.50;100993.94;5072705;28;19929;-64
2021/06/29 10:03:50;;;;;;;;;;;22.40;99.90;;;21.85;52.71;100982.38;5071707;28;19924;-64
2021/06/29 10:06:19;;;;;;;;;;;22.30;99.90;;;21.78;52.24;100987.72;5072684;28;20407;-64
2021/06/29 10:08:48;;;;;;;;;;;22.30;99.90;;;21.85;52.58;100981.59;5072429;28;19935;-64
2021/06/29 10:11:18;;;;;;;;;;;22.30;99.90;;;22.00;53.08;100987.06;5071886;28;20377;-64
2021/06/29 10:13:50;;;;;;;;;;;22.40;99.90;;;21.93;52.34;100984.16;5071717;28;19931;-64
2021/06/29 10:16:22;;;;;;;;;;;22.40;99.90;;;21.96;52.58;100993.63;5072490;28;20400;-64
2021/06/29 10:21:33;;;;;;;;;;;22.50;99.90;;;22.09;52.17;100990.38;5062854;28;20366;-64
2021/06/29 10:24:02;;;;;;;;;;;22.50;99.90;;;22.07;52.02;100992.69;5071559;28;19932;-64
2021/06/29 10:26:32;;;;;;;;;;;22.50;99.90;;;22.04;53.24;100995.41;5072475;28;19925;-64
2021/06/29 10:29:00;;;;;;;;;;;22.50;99.90;;;22.04;51.42;100985.16;5072092;28;19925;-64
2021/06/29 10:31:31;;;;;;;;;;;22.50;99.90;;;21.99;51.90;100987.41;5074593;28;19928;-65
2021/06/29 10:34:01;;;;;;;;;;;22.40;99.90;;;21.96;51.90;100985.38;5075590;28;19943;-64
2021/06/29 10:36:30;;;;;;;;;;;22.40;99.90;;;22.00;51.50;100991.75;5076580;28;19929;-64
2021/06/29 10:38:59;;;;;;;;;;;22.40;99.90;;;22.03;52.06;100986.34;5075944;28;19981;-64
2021/06/29 10:41:33;;;;;;;;;;;22.40;99.90;;;22.05;51.08;100986.75;5075737;28;19929;-64
2021/06/29 10:44:02;;;;;;;;;;;22.50;99.90;;;22.02;52.36;100986.69;5075481;28;20410;-64
2021/06/29 10:46:41;;;;;;;;;;;22.50;99.90;;;22.05;51.38;100986.75;5076191;28;19925;-64
2021/06/29 10:49:36;;;;;;;;;;;22.50;99.90;;;21.96;51.74;100994.44;5075790;28;19974;-64
2021/06/29 10:52:06;;;;;;;;;;;22.40;99.90;;;21.75;51.47;100986.50;5068990;28;20312;-64
2021/06/29 10:54:47;;;;;;;;;;;22.30;99.90;;;21.61;52.72;100983.44;5076234;28;19934;-64
2021/06/29 10:57:17;;;;;;;;;;;22.10;99.90;;;21.44;53.57;100997.59;5076050;28;19924;-64
2021/06/29 10:59:49;;;;;;;;;;;21.90;99.90;;;21.39;53.02;100986.88;5075416;28;19924;-64
2021/06/29 11:02:31;;;;;;;;;;;21.90;99.90;;;21.38;53.94;100992.72;5075067;28;19928;-64
2021/06/29 11:05:00;;;;;;;;;;;21.80;99.90;;;21.36;53.25;100992.28;5075757;28;19982;-64
2021/06/29 11:07:41;;;;;;;;;;;21.80;99.90;;;21.44;54.30;100986.59;5076003;28;20279;-64
2021/06/29 11:10:11;;;;;;;;;;;21.80;99.90;;;21.41;53.01;100992.00;5075198;28;19931;-64
2021/06/29 11:12:40;;;;;;;;;;;21.80;99.90;;;21.55;54.49;100998.63;5074551;28;20373;-64
2021/06/29 11:15:10;;;;;;;;;;;21.90;99.90;;;21.62;54.83;100998.78;5075574;28;20287;-64
2021/06/29 11:17:59;;;;;;;;;;;22.00;99.90;;;21.73;54.25;100997.06;5075734;28;19924;-64
2021/06/29 11:20:28;;;;;;;;;;;22.10;99.90;;;21.71;54.19;100993.06;5074899;28;19955;-64
2021/06/29 11:22:59;;;;;;;;;;;22.20;99.90;;;21.72;54.72;100995.47;5074287;28;19978;-64
2021/06/29 11:25:50;;;;;;;;;;;22.20;99.90;;;21.66;54.36;101002.44;5075508;28;20397;-64